createdAt,value
2022-07-29T00:00:00.763Z,20.80
2022-07-29T00:02:35.186Z,20.80
2022-07-29T00:05:14.893Z,20.80
2022-07-29T00:07:48.404Z,20.70
2022-07-29T00:10:39.500Z,20.80
2022-07-29T00:13:10.700Z,20.70
2022-07-29T00:15:43.184Z,20.70
2022-07-29T00:18:29.956Z,20.70
2022-07-29T00:20:58.335Z,20.70
2022-07-29T00:24:11.021Z,20.70
2022-07-29T00:26:54.920Z,20.60
2022-07-29T00:29:41.296Z,20.60
2022-07-29T00:32:12.775Z,20.50
2022-07-29T00:35:13.731Z,20.50
2022-07-29T00:37:40.980Z,20.50
2022-07-29T00:40:14.167Z,20.50
2022-07-29T00:43:04.304Z,20.50
2022-07-29T00:45:39.672Z,20.50
2022-07-29T00:48:28.497Z,20.40
2022-07-29T00:51:00.417Z,20.40
2022-07-29T00:53:30.282Z,20.40
2022-07-29T00:56:08.417Z,20.30
2022-07-29T00:58:36.942Z,20.30
2022-07-29T01:01:07.932Z,20.30
2022-07-29T01:03:53.516Z,20.30
2022-07-29T01:06:25.028Z,20.30
2022-07-29T01:12:21.190Z,20.20
2022-07-29T01:15:00.221Z,20.20
2022-07-29T01:17:36.239Z,20.20
2022-07-29T01:20:14.740Z,20.20
2022-07-29T01:22:48.492Z,20.20
2022-07-29T01:25:44.389Z,20.20
2022-07-29T01:28:32.557Z,20.20
2022-07-29T01:31:01.904Z,20.20
2022-07-29T01:33:51.883Z,20.20
2022-07-29T01:36:42.496Z,20.20
2022-07-29T01:39:37.570Z,20.20
2022-07-29T01:42:22.115Z,20.20
2022-07-29T01:45:01.683Z,20.20
2022-07-29T01:47:35.995Z,20.10
2022-07-29T01:50:24.315Z,20.10
2022-07-29T01:53:10.485Z,20.10
2022-07-29T01:55:44.605Z,20.10
2022-07-29T01:58:14.852Z,20.00
2022-07-29T02:00:48.318Z,20.00
2022-07-29T02:03:27.442Z,20.00
2022-07-29T02:06:01.071Z,20.00
2022-07-29T02:08:34.046Z,20.00
2022-07-29T02:11:09.350Z,19.90
2022-07-29T02:13:40.987Z,19.90
2022-07-29T02:16:10.863Z,19.90
2022-07-29T02:18:51.868Z,19.90
2022-07-29T02:21:32.523Z,19.90
2022-07-29T02:24:10.727Z,19.90
2022-07-29T02:26:58.131Z,19.90
2022-07-29T02:29:50.251Z,19.90
2022-07-29T02:32:30.503Z,19.90
2022-07-29T02:35:20.861Z,20.00
2022-07-29T02:38:20.165Z,20.00
2022-07-29T02:40:55.598Z,20.00
2022-07-29T02:43:23.528Z,20.00
2022-07-29T02:45:55.236Z,19.90
2022-07-29T02:48:42.446Z,19.90
2022-07-29T02:51:43.573Z,19.80
2022-07-29T02:54:40.967Z,19.80
2022-07-29T02:57:31.886Z,19.80
2022-07-29T03:00:10.498Z,19.90
2022-07-29T03:02:53.743Z,19.80
2022-07-29T03:05:32.482Z,19.70
2022-07-29T03:08:42.502Z,19.60
2022-07-29T03:11:12.865Z,19.40
2022-07-29T03:13:50.172Z,19.30
2022-07-29T03:16:20.405Z,19.30
2022-07-29T03:19:17.624Z,19.30
2022-07-29T03:21:46.067Z,19.30
2022-07-29T03:24:33.753Z,19.30
2022-07-29T03:27:08.463Z,19.40
2022-07-29T03:29:50.604Z,19.40
2022-07-29T03:32:39.638Z,19.40
2022-07-29T03:35:07.803Z,19.40
2022-07-29T03:37:37.892Z,19.40
2022-07-29T03:40:14.753Z,19.40
2022-07-29T03:43:18.380Z,19.40
2022-07-29T03:46:08.782Z,19.40
2022-07-29T03:48:59.102Z,19.30
2022-07-29T03:51:51.129Z,19.20
2022-07-29T03:54:27.239Z,19.20
2022-07-29T03:56:58.611Z,19.10
2022-07-29T04:02:33.852Z,19.10
2022-07-29T04:05:18.698Z,19.00
2022-07-29T04:07:55.429Z,18.90
2022-07-29T04:10:30.225Z,18.80
2022-07-29T04:13:15.638Z,18.80
2022-07-29T04:15:50.201Z,18.80
2022-07-29T04:18:20.918Z,18.70
2022-07-29T04:20:50.660Z,18.70
2022-07-29T04:23:52.832Z,18.60
2022-07-29T04:26:31.142Z,18.60
2022-07-29T04:29:05.093Z,18.60
2022-07-29T04:31:41.252Z,18.60
2022-07-29T04:34:11.051Z,18.60
2022-07-29T04:36:57.163Z,18.70
2022-07-29T04:39:31.826Z,18.70
2022-07-29T04:42:09.117Z,18.80
2022-07-29T04:44:57.303Z,18.80
2022-07-29T04:47:37.056Z,18.90
2022-07-29T04:50:14.159Z,19.10
2022-07-29T04:52:56.237Z,19.20
2022-07-29T04:55:35.956Z,19.40
2022-07-29T04:58:17.159Z,19.70
2022-07-29T05:00:52.468Z,20.00
2022-07-29T05:03:31.951Z,20.30
2022-07-29T05:06:03.796Z,20.50
2022-07-29T05:09:02.506Z,20.80
2022-07-29T05:11:30.479Z,20.90
2022-07-29T05:14:22.227Z,21.00
2022-07-29T05:16:53.257Z,21.00
2022-07-29T05:19:20.733Z,21.10
2022-07-29T05:21:58.549Z,21.20
2022-07-29T05:24:29.351Z,21.40
2022-07-29T05:26:57.425Z,21.50
2022-07-29T05:29:44.942Z,21.50
2022-07-29T05:32:21.820Z,21.60
2022-07-29T05:34:51.820Z,21.60
2022-07-29T05:37:27.861Z,21.60
2022-07-29T05:40:01.623Z,21.60
2022-07-29T05:42:31.002Z,21.70
2022-07-29T05:45:31.440Z,21.70
2022-07-29T05:48:07.001Z,21.70
2022-07-29T05:50:44.211Z,21.70
2022-07-29T05:53:20.706Z,21.60
2022-07-29T05:55:59.835Z,21.60
2022-07-29T05:58:32.774Z,21.60
2022-07-29T06:01:14.731Z,21.50
2022-07-29T06:04:00.984Z,21.50
2022-07-29T06:06:30.078Z,21.50
2022-07-29T06:09:01.604Z,21.50
2022-07-29T06:12:00.991Z,21.40
2022-07-29T06:14:40.008Z,21.30
2022-07-29T06:18:07.285Z,21.30
2022-07-29T06:20:28.895Z,21.30
2022-07-29T06:23:16.001Z,21.30
2022-07-29T06:25:46.677Z,21.30
2022-07-29T06:28:31.256Z,21.30
2022-07-29T06:30:59.001Z,21.40
2022-07-29T06:33:34.520Z,21.40
2022-07-29T06:36:11.777Z,21.50
2022-07-29T06:38:50.460Z,21.60
2022-07-29T06:41:19.448Z,21.60
2022-07-29T06:43:59.457Z,21.60
2022-07-29T06:47:04.454Z,21.60
2022-07-29T06:49:38.355Z,21.50
2022-07-29T06:52:21.663Z,21.50
2022-07-29T06:54:50.912Z,21.50
2022-07-29T06:57:21.920Z,21.50
2022-07-29T06:59:52.820Z,21.60
2022-07-29T07:05:23.259Z,21.70
2022-07-29T07:07:50.717Z,21.90
2022-07-29T07:10:17.493Z,22.00
2022-07-29T07:12:46.860Z,22.20
2022-07-29T07:20:58.921Z,23.80
2022-07-29T07:23:33.917Z,25.60
2022-07-29T07:26:17.719Z,28.00
2022-07-29T07:28:49.404Z,30.20
2022-07-29T07:34:57.504Z,33.90
2022-07-29T07:37:35.602Z,36.00
2022-07-29T07:40:08.366Z,37.20
2022-07-29T07:42:58.401Z,38.30
2022-07-29T07:45:47.943Z,39.10
2022-07-29T07:48:25.094Z,39.70
2022-07-29T07:50:52.900Z,40.40
2022-07-29T07:56:46.611Z,41.30
2022-07-29T07:59:27.924Z,42.10
2022-07-29T08:02:37.509Z,42.90
2022-07-29T08:04:53.805Z,43.70
2022-07-29T08:07:21.502Z,44.20
2022-07-29T08:09:50.881Z,44.60
2022-07-29T08:12:25.464Z,45.00
2022-07-29T08:14:53.625Z,45.40
2022-07-29T08:17:27.883Z,45.90
2022-07-29T08:19:55.879Z,46.20
2022-07-29T08:22:22.683Z,46.30
2022-07-29T08:25:02.086Z,46.80
2022-07-29T08:27:44.442Z,47.30
2022-07-29T08:30:25.246Z,47.40
2022-07-29T08:32:56.034Z,47.80
2022-07-29T08:35:47.967Z,47.70
2022-07-29T08:38:31.035Z,47.60
2022-07-29T08:40:57.763Z,47.20
2022-07-29T08:43:24.845Z,46.60
2022-07-29T08:45:52.093Z,45.50
2022-07-29T08:48:19.729Z,44.60
2022-07-29T08:50:47.501Z,43.80
2022-07-29T08:53:15.351Z,43.00
2022-07-29T08:55:49.433Z,43.80
2022-07-29T08:58:17.039Z,44.50
2022-07-29T09:00:50.386Z,45.10
2022-07-29T09:03:19.365Z,45.70
2022-07-29T09:05:48.306Z,46.50
2022-07-29T09:08:16.131Z,45.70
2022-07-29T09:10:43.045Z,44.10
2022-07-29T09:13:09.818Z,42.50
2022-07-29T09:15:36.598Z,41.10
2022-07-29T09:18:03.545Z,40.60
2022-07-29T09:20:50.256Z,40.10
2022-07-29T09:23:24.128Z,39.40
2022-07-29T09:25:51.397Z,38.50
2022-07-29T09:28:18.592Z,37.70
2022-07-29T09:30:53.119Z,36.90
2022-07-29T09:33:20.218Z,36.30
2022-07-29T09:35:56.380Z,36.10
2022-07-29T09:38:24.466Z,35.70
2022-07-29T09:40:59.958Z,34.90
2022-07-29T09:43:33.432Z,34.30
2022-07-29T09:46:15.288Z,33.80
2022-07-29T09:48:42.242Z,33.40
2022-07-29T09:51:25.517Z,32.90
2022-07-29T09:53:59.134Z,32.40
2022-07-29T09:56:41.985Z,31.60
2022-07-29T09:59:09.279Z,30.90
2022-07-29T10:01:36.906Z,30.10
2022-07-29T10:04:03.793Z,29.60
2022-07-29T10:06:30.819Z,29.20
2022-07-29T10:09:13.094Z,28.90
2022-07-29T10:11:48.941Z,28.60
2022-07-29T10:14:17.094Z,28.20
2022-07-29T10:16:44.221Z,27.80
2022-07-29T10:19:11.324Z,27.50
2022-07-29T10:21:40.724Z,27.00
2022-07-29T10:24:14.643Z,26.60
2022-07-29T10:26:42.467Z,26.30
2022-07-29T10:29:09.257Z,26.10
2022-07-29T10:31:43.190Z,26.00
2022-07-29T10:34:20.957Z,26.20
2022-07-29T10:36:57.857Z,26.20
2022-07-29T10:39:45.170Z,26.20
2022-07-29T10:42:33.344Z,26.00
2022-07-29T10:45:01.626Z,25.90
2022-07-29T10:47:28.536Z,25.90
2022-07-29T10:49:56.646Z,25.90
2022-07-29T10:52:30.083Z,26.20
2022-07-29T10:54:59.521Z,26.70
2022-07-29T10:57:52.402Z,26.70
2022-07-29T11:00:17.035Z,26.50
2022-07-29T11:02:45.338Z,26.50
2022-07-29T11:05:13.190Z,26.70
2022-07-29T11:07:45.824Z,27.10
2022-07-29T11:10:13.951Z,27.60
2022-07-29T11:12:44.404Z,28.40
2022-07-29T11:15:21.747Z,29.10
2022-07-29T11:17:59.396Z,29.80
2022-07-29T11:23:20.331Z,30.80
2022-07-29T11:26:08.683Z,31.30
2022-07-29T11:28:36.389Z,31.50
2022-07-29T11:31:04.312Z,31.70
2022-07-29T11:33:54.470Z,31.90
2022-07-29T11:36:28.292Z,32.00
2022-07-29T11:39:15.343Z,32.10
2022-07-29T11:41:42.281Z,32.20
2022-07-29T11:44:09.648Z,32.40
2022-07-29T11:46:49.902Z,32.50
2022-07-29T11:49:23.655Z,32.70
2022-07-29T11:52:02.536Z,32.80
2022-07-29T11:54:38.694Z,33.00
2022-07-29T11:57:21.921Z,33.00
2022-07-29T11:59:48.910Z,32.90
2022-07-29T12:05:10.592Z,32.90
2022-07-29T12:07:03.607Z,32.80
2022-07-29T12:07:50.385Z,32.90
2022-07-29T12:10:19.992Z,32.80
2022-07-29T12:12:56.811Z,32.60
2022-07-29T12:15:39.481Z,32.40
2022-07-29T12:18:18.630Z,32.60
2022-07-29T12:20:47.030Z,32.70
2022-07-29T12:23:16.315Z,32.80
2022-07-29T12:25:50.018Z,32.80
2022-07-29T12:28:26.406Z,32.60
2022-07-29T12:30:55.371Z,32.40
2022-07-29T12:33:29.766Z,32.30
2022-07-29T12:36:06.713Z,32.00
2022-07-29T12:38:36.734Z,31.90
2022-07-29T12:41:05.265Z,31.80
2022-07-29T12:43:32.953Z,31.70
2022-07-29T12:46:13.801Z,31.70
2022-07-29T12:48:41.976Z,31.70
2022-07-29T12:51:09.749Z,32.10
2022-07-29T12:53:37.181Z,32.20
2022-07-29T12:56:15.557Z,32.50
2022-07-29T12:58:51.129Z,32.70
2022-07-29T13:01:20.291Z,32.60
2022-07-29T13:03:57.299Z,32.10
2022-07-29T13:06:30.773Z,31.50
2022-07-29T13:09:05.458Z,31.00
2022-07-29T13:11:45.248Z,30.60
2022-07-29T13:14:30.106Z,30.20
2022-07-29T13:17:05.267Z,29.90
2022-07-29T13:19:36.853Z,29.90
2022-07-29T13:22:03.877Z,29.90
2022-07-29T13:24:31.182Z,29.80
2022-07-29T13:26:58.356Z,29.80
2022-07-29T13:29:31.325Z,29.90
2022-07-29T13:31:59.098Z,30.10
2022-07-29T13:34:26.199Z,30.10
2022-07-29T13:36:55.655Z,30.20
2022-07-29T13:39:22.365Z,30.30
2022-07-29T13:41:49.147Z,30.40
2022-07-29T13:44:16.010Z,30.40
2022-07-29T13:46:42.703Z,30.50
2022-07-29T13:49:09.471Z,30.50
2022-07-29T13:51:36.215Z,30.40
2022-07-29T13:54:03.072Z,30.40
2022-07-29T13:56:29.764Z,30.30
2022-07-29T13:58:56.518Z,30.20
2022-07-29T14:01:23.254Z,30.10
2022-07-29T14:03:50.163Z,29.90
2022-07-29T14:06:16.901Z,29.80
2022-07-29T14:08:45.035Z,29.50
2022-07-29T14:11:11.746Z,29.40
2022-07-29T14:13:38.492Z,29.20
2022-07-29T14:16:05.554Z,29.10
2022-07-29T14:18:32.426Z,29.00
2022-07-29T14:20:59.195Z,28.90
2022-07-29T14:23:25.926Z,28.80
2022-07-29T14:25:53.257Z,28.80
2022-07-29T14:28:20.378Z,28.80
2022-07-29T14:30:47.265Z,28.70
2022-07-29T14:33:14.055Z,28.70
2022-07-29T14:35:41.049Z,28.70
2022-07-29T14:38:07.725Z,28.70
2022-07-29T14:40:34.436Z,28.70
2022-07-29T14:43:02.440Z,28.80
2022-07-29T14:45:29.561Z,28.80
2022-07-29T14:47:57.243Z,28.90
2022-07-29T14:50:31.451Z,28.90
2022-07-29T14:52:59.485Z,29.00
2022-07-29T14:55:26.251Z,29.00
2022-07-29T14:57:57.955Z,28.90
2022-07-29T15:00:33.169Z,28.90
2022-07-29T15:03:03.281Z,28.90
2022-07-29T15:05:30.885Z,28.80
2022-07-29T15:07:57.977Z,28.80
2022-07-29T15:10:25.261Z,28.80
2022-07-29T15:12:54.472Z,28.70
2022-07-29T15:15:22.599Z,28.70
2022-07-29T15:17:49.360Z,28.70
2022-07-29T15:20:16.166Z,28.60
2022-07-29T15:22:43.932Z,28.50
2022-07-29T15:25:11.204Z,28.40
2022-07-29T15:27:37.971Z,28.30
2022-07-29T15:30:04.880Z,28.20
2022-07-29T15:32:31.666Z,28.20
2022-07-29T15:34:58.360Z,28.20
2022-07-29T15:37:25.233Z,28.20
2022-07-29T15:39:51.970Z,28.20
2022-07-29T15:42:18.723Z,28.10
2022-07-29T15:44:45.728Z,28.10
2022-07-29T15:47:12.474Z,28.10
2022-07-29T15:49:47.463Z,28.00
2022-07-29T15:52:17.995Z,28.00
2022-07-29T15:54:47.807Z,27.90
2022-07-29T15:57:14.606Z,27.90
2022-07-29T15:59:41.412Z,27.80
2022-07-29T16:02:08.200Z,27.70
2022-07-29T16:04:35.021Z,27.60
2022-07-29T16:07:01.861Z,27.60
2022-07-29T16:09:28.947Z,27.40
2022-07-29T16:11:56.609Z,27.40
2022-07-29T16:14:23.356Z,27.10
2022-07-29T16:16:50.181Z,26.00
2022-07-29T16:19:17.010Z,24.70
2022-07-29T16:21:43.903Z,23.90
2022-07-29T16:24:10.684Z,23.50
2022-07-29T16:26:47.014Z,23.00
2022-07-29T16:29:13.879Z,22.70
2022-07-29T16:31:40.773Z,22.20
2022-07-29T16:34:10.175Z,21.70
2022-07-29T16:36:36.937Z,20.90
2022-07-29T16:39:05.581Z,20.30
2022-07-29T16:41:32.294Z,19.80
2022-07-29T16:43:59.342Z,19.40
2022-07-29T16:46:26.164Z,19.10
2022-07-29T16:48:53.083Z,18.80
2022-07-29T16:51:20.212Z,18.70
2022-07-29T16:53:49.825Z,18.50
2022-07-29T16:56:17.637Z,18.50
2022-07-29T16:58:44.402Z,18.50
2022-07-29T17:01:11.755Z,18.50
2022-07-29T17:04:01.467Z,18.40
2022-07-29T17:06:29.659Z,18.40
2022-07-29T17:08:56.846Z,18.40
2022-07-29T17:11:52.477Z,18.40
2022-07-29T17:14:10.874Z,18.40
2022-07-29T17:16:37.687Z,18.40
2022-07-29T17:19:04.799Z,18.40
2022-07-29T17:21:31.583Z,18.40
2022-07-29T17:23:59.314Z,18.40
2022-07-29T17:26:28.064Z,18.40
2022-07-29T17:28:55.661Z,18.40
2022-07-29T17:31:23.460Z,18.40
2022-07-29T17:33:50.450Z,18.40
2022-07-29T17:36:29.363Z,18.40
2022-07-29T17:38:57.448Z,18.40
2022-07-29T17:41:24.779Z,18.40
2022-07-29T17:43:51.864Z,18.40
2022-07-29T17:46:19.143Z,18.40
2022-07-29T17:48:46.106Z,18.40
2022-07-29T17:51:13.065Z,18.40
2022-07-29T17:53:39.954Z,18.40
2022-07-29T17:56:06.897Z,18.30
2022-07-29T17:58:35.376Z,18.30
2022-07-29T18:01:02.202Z,18.30
2022-07-29T18:03:29.307Z,18.30
2022-07-29T18:05:56.093Z,18.30
2022-07-29T18:08:23.392Z,18.30
2022-07-29T18:10:53.119Z,18.30
2022-07-29T18:13:20.184Z,18.30
2022-07-29T18:15:46.932Z,18.30
2022-07-29T18:18:19.210Z,18.40
2022-07-29T18:20:46.305Z,18.50
2022-07-29T18:23:13.386Z,18.60
2022-07-29T18:25:40.202Z,18.60
2022-07-29T18:28:07.181Z,18.60
2022-07-29T18:30:34.538Z,18.70
2022-07-29T18:35:48.647Z,18.80
2022-07-29T18:38:15.625Z,18.90
2022-07-29T18:40:42.671Z,19.00
2022-07-29T18:43:09.468Z,19.00
2022-07-29T18:45:36.281Z,19.10
2022-07-29T18:48:08.370Z,19.10
2022-07-29T18:50:43.072Z,19.10
2022-07-29T18:53:09.928Z,19.10
2022-07-29T18:55:36.847Z,19.10
2022-07-29T18:58:03.598Z,19.00
2022-07-29T19:00:30.618Z,19.00
2022-07-29T19:02:57.727Z,19.00
2022-07-29T19:05:24.918Z,19.00
2022-07-29T19:07:51.720Z,19.00
2022-07-29T19:10:22.008Z,19.00
2022-07-29T19:12:54.990Z,19.00
2022-07-29T19:15:21.724Z,19.10
2022-07-29T19:17:48.896Z,19.00
2022-07-29T19:20:15.970Z,19.00
2022-07-29T19:22:42.751Z,19.00
2022-07-29T19:25:10.027Z,19.00
2022-07-29T19:27:36.965Z,19.10
2022-07-29T19:30:06.584Z,19.10
2022-07-29T19:32:33.574Z,19.10
2022-07-29T19:35:19.079Z,19.10
2022-07-29T19:37:45.916Z,19.10
2022-07-29T19:40:13.213Z,19.10
2022-07-29T19:42:39.919Z,19.10
2022-07-29T19:45:07.091Z,19.10
2022-07-29T19:47:33.813Z,19.10
2022-07-29T19:50:00.765Z,19.10
2022-07-29T19:52:27.724Z,19.10
2022-07-29T19:54:54.551Z,19.10
2022-07-29T19:57:21.504Z,19.10
2022-07-29T19:59:48.313Z,19.10
2022-07-29T20:02:16.511Z,19.10
2022-07-29T20:04:43.792Z,19.10
2022-07-29T20:07:11.489Z,19.10
2022-07-29T20:09:39.992Z,19.10
2022-07-29T20:12:10.048Z,19.10
2022-07-29T20:14:36.951Z,19.10
2022-07-29T20:17:04.569Z,19.10
2022-07-29T20:19:32.954Z,19.10
2022-07-29T20:21:59.904Z,19.20
2022-07-29T20:24:26.610Z,19.20
2022-07-29T20:26:53.321Z,19.20
2022-07-29T20:29:20.125Z,19.30
2022-07-29T20:31:52.921Z,19.20
2022-07-29T20:34:23.195Z,19.20
2022-07-29T20:36:49.967Z,19.30
2022-07-29T20:39:17.072Z,19.30
2022-07-29T20:41:44.430Z,19.30
2022-07-29T20:44:11.256Z,19.30
2022-07-29T20:46:39.251Z,19.20
2022-07-29T20:49:06.258Z,19.10
2022-07-29T20:51:33.059Z,19.20
2022-07-29T20:54:17.488Z,19.20
2022-07-29T20:56:44.197Z,19.30
2022-07-29T20:59:11.372Z,19.40
2022-07-29T21:01:38.168Z,19.40
2022-07-29T21:04:19.363Z,19.40
2022-07-29T21:06:52.292Z,19.20
2022-07-29T21:09:26.304Z,19.10
2022-07-29T21:11:53.332Z,19.00
2022-07-29T21:14:36.129Z,18.90
2022-07-29T21:17:10.190Z,18.80
2022-07-29T21:19:41.070Z,18.70
2022-07-29T21:22:16.714Z,18.70
2022-07-29T21:24:43.467Z,18.60
2022-07-29T21:27:35.014Z,18.70
2022-07-29T21:30:18.249Z,18.80
2022-07-29T21:32:51.880Z,18.90
2022-07-29T21:36:01.689Z,18.90
2022-07-29T21:38:05.441Z,18.90
2022-07-29T21:40:32.238Z,19.00
2022-07-29T21:42:59.033Z,19.00
2022-07-29T21:45:26.386Z,19.00
2022-07-29T21:47:53.142Z,18.90
2022-07-29T21:50:20.227Z,18.90
2022-07-29T21:52:46.910Z,18.80
2022-07-29T21:55:14.150Z,18.70
2022-07-29T21:57:40.956Z,18.60
2022-07-29T22:00:10.609Z,18.50
2022-07-29T22:02:54.570Z,18.40
2022-07-29T22:05:21.508Z,18.30
2022-07-29T22:07:56.360Z,18.20
2022-07-29T22:10:27.475Z,18.20
2022-07-29T22:12:55.427Z,18.20
2022-07-29T22:15:22.621Z,18.20
2022-07-29T22:17:49.752Z,18.30
2022-07-29T22:20:16.499Z,18.30
2022-07-29T22:22:43.528Z,18.30
2022-07-29T22:25:10.549Z,18.30
2022-07-29T22:27:37.694Z,18.20
2022-07-29T22:30:05.669Z,18.20
2022-07-29T22:32:32.805Z,18.20
2022-07-29T22:34:59.519Z,18.20
2022-07-29T22:37:26.252Z,18.20
2022-07-29T22:39:53.135Z,18.20
2022-07-29T22:42:19.898Z,18.20
2022-07-29T22:44:46.686Z,18.20
2022-07-29T22:47:13.477Z,18.20
2022-07-29T22:49:40.185Z,18.20
2022-07-29T22:52:07.025Z,18.30
2022-07-29T22:54:33.812Z,18.30
2022-07-29T22:57:01.440Z,18.30
2022-07-29T22:59:28.261Z,18.30
2022-07-29T23:01:58.035Z,18.30
2022-07-29T23:04:25.008Z,18.40
2022-07-29T23:06:54.053Z,18.50
2022-07-29T23:09:21.174Z,18.50
2022-07-29T23:11:48.263Z,18.50
2022-07-29T23:14:15.368Z,18.50
2022-07-29T23:16:42.590Z,18.50
2022-07-29T23:19:09.512Z,18.60
2022-07-29T23:21:36.238Z,18.60
2022-07-29T23:24:03.034Z,18.70
2022-07-29T23:26:30.212Z,18.70
2022-07-29T23:28:57.042Z,18.70
2022-07-29T23:31:23.848Z,18.70
2022-07-29T23:33:50.543Z,18.70
2022-07-29T23:36:17.459Z,18.70
2022-07-29T23:38:46.641Z,18.60
2022-07-29T23:41:13.606Z,18.60
2022-07-29T23:43:40.367Z,18.60
2022-07-29T23:46:07.194Z,18.60
2022-07-29T23:48:34.147Z,18.50
2022-07-29T23:51:01.246Z,18.50
2022-07-29T23:53:28.237Z,18.40
2022-07-29T23:55:55.693Z,18.30
2022-07-29T23:58:22.626Z,18.20
